sensor_id;sensor_type;location;lat;lon;timestamp;P1;durP1;ratioP1;P2;durP2;ratioP2
70981;SDS011;58640;51.320;9.456;2023-06-22T00:00:56;13.60;;;11.02;;
70981;SDS011;58640;51.320;9.456;2023-06-22T00:03:22;14.73;;;11.95;;
70981;SDS011;58640;51.320;9.456;2023-06-22T00:05:49;14.98;;;11.40;;
70981;SDS011;58640;51.320;9.456;2023-06-22T00:08:22;13.95;;;11.68;;
70981;SDS011;58640;51.320;9.456;2023-06-22T00:10:50;13.00;;;11.57;;
70981;SDS011;58640;51.320;9.456;2023-06-22T00:13:20;15.50;;;12.80;;
70981;SDS011;58640;51.320;9.456;2023-06-22T00:15:48;14.05;;;11.57;;
70981;SDS011;58640;51.320;9.456;2023-06-22T00:18:14;14.18;;;12.77;;
70981;SDS011;58640;51.320;9.456;2023-06-22T00:20:41;13.57;;;11.50;;
70981;SDS011;58640;51.320;9.456;2023-06-22T00:23:07;13.15;;;11.65;;
70981;SDS011;58640;51.320;9.456;2023-06-22T00:25:36;13.85;;;12.35;;
70981;SDS011;58640;51.320;9.456;2023-06-22T00:28:05;15.45;;;12.52;;
70981;SDS011;58640;51.320;9.456;2023-06-22T00:30:32;15.90;;;12.38;;
70981;SDS011;58640;51.320;9.456;2023-06-22T00:32:58;15.38;;;12.85;;
70981;SDS011;58640;51.320;9.456;2023-06-22T00:35:24;14.23;;;11.90;;
70981;SDS011;58640;51.320;9.456;2023-06-22T00:37:57;14.77;;;12.70;;
70981;SDS011;58640;51.320;9.456;2023-06-22T00:40:28;14.35;;;12.88;;
70981;SDS011;58640;51.320;9.456;2023-06-22T00:42:53;14.38;;;12.20;;
70981;SDS011;58640;51.320;9.456;2023-06-22T00:45:19;13.88;;;11.98;;
70981;SDS011;58640;51.320;9.456;2023-06-22T00:47:45;17.60;;;13.63;;
70981;SDS011;58640;51.320;9.456;2023-06-22T00:50:11;14.43;;;12.93;;
70981;SDS011;58640;51.320;9.456;2023-06-22T00:52:43;16.35;;;13.70;;
70981;SDS011;58640;51.320;9.456;2023-06-22T00:55:09;14.18;;;12.68;;
70981;SDS011;58640;51.320;9.456;2023-06-22T00:57:35;15.50;;;12.98;;
70981;SDS011;58640;51.320;9.456;2023-06-22T01:00:02;15.27;;;13.43;;
70981;SDS011;58640;51.320;9.456;2023-06-22T01:02:31;13.05;;;11.43;;
70981;SDS011;58640;51.320;9.456;2023-06-22T01:04:57;13.70;;;10.43;;
70981;SDS011;58640;51.320;9.456;2023-06-22T01:07:34;19.73;;;12.10;;
70981;SDS011;58640;51.320;9.456;2023-06-22T01:10:17;15.93;;;12.13;;
70981;SDS011;58640;51.320;9.456;2023-06-22T01:12:50;17.58;;;10.88;;
70981;SDS011;58640;51.320;9.456;2023-06-22T01:15:23;22.17;;;12.40;;
70981;SDS011;58640;51.320;9.456;2023-06-22T01:17:56;18.35;;;13.10;;
70981;SDS011;58640;51.320;9.456;2023-06-22T01:20:23;15.65;;;12.68;;
70981;SDS011;58640;51.320;9.456;2023-06-22T01:25:36;12.25;;;10.93;;
70981;SDS011;58640;51.320;9.456;2023-06-22T01:31:00;14.15;;;12.30;;
70981;SDS011;58640;51.320;9.456;2023-06-22T01:33:31;14.75;;;12.15;;
70981;SDS011;58640;51.320;9.456;2023-06-22T01:35:59;19.77;;;12.43;;
70981;SDS011;58640;51.320;9.456;2023-06-22T01:38:26;17.08;;;11.52;;
70981;SDS011;58640;51.320;9.456;2023-06-22T01:40:53;24.92;;;11.95;;
70981;SDS011;58640;51.320;9.456;2023-06-22T01:43:20;14.68;;;11.07;;
70981;SDS011;58640;51.320;9.456;2023-06-22T01:45:48;18.38;;;12.05;;
70981;SDS011;58640;51.320;9.456;2023-06-22T01:48:18;14.70;;;12.02;;
70981;SDS011;58640;51.320;9.456;2023-06-22T01:50:44;18.55;;;12.57;;
70981;SDS011;58640;51.320;9.456;2023-06-22T01:53:10;14.40;;;12.90;;
70981;SDS011;58640;51.320;9.456;2023-06-22T01:55:38;19.75;;;13.63;;
70981;SDS011;58640;51.320;9.456;2023-06-22T01:58:03;16.77;;;12.82;;
70981;SDS011;58640;51.320;9.456;2023-06-22T02:00:32;14.27;;;12.77;;
70981;SDS011;58640;51.320;9.456;2023-06-22T02:03:23;15.02;;;12.05;;
70981;SDS011;58640;51.320;9.456;2023-06-22T02:05:54;14.07;;;11.85;;
70981;SDS011;58640;51.320;9.456;2023-06-22T02:08:30;15.27;;;12.23;;
70981;SDS011;58640;51.320;9.456;2023-06-22T02:11:00;16.98;;;12.45;;
70981;SDS011;58640;51.320;9.456;2023-06-22T02:13:27;16.00;;;12.05;;
70981;SDS011;58640;51.320;9.456;2023-06-22T02:15:55;18.13;;;12.52;;
70981;SDS011;58640;51.320;9.456;2023-06-22T02:18:23;18.27;;;12.73;;
70981;SDS011;58640;51.320;9.456;2023-06-22T02:20:49;12.98;;;11.15;;
70981;SDS011;58640;51.320;9.456;2023-06-22T02:23:19;16.55;;;11.85;;
70981;SDS011;58640;51.320;9.456;2023-06-22T02:25:54;13.80;;;11.52;;
70981;SDS011;58640;51.320;9.456;2023-06-22T02:28:29;19.52;;;11.52;;
70981;SDS011;58640;51.320;9.456;2023-06-22T02:30:57;14.45;;;11.48;;
70981;SDS011;58640;51.320;9.456;2023-06-22T02:33:34;16.38;;;10.55;;
70981;SDS011;58640;51.320;9.456;2023-06-22T02:36:38;20.02;;;12.60;;
70981;SDS011;58640;51.320;9.456;2023-06-22T02:42:35;14.48;;;10.95;;
70981;SDS011;58640;51.320;9.456;2023-06-22T02:45:28;14.45;;;11.38;;
70981;SDS011;58640;51.320;9.456;2023-06-22T02:48:06;18.70;;;10.60;;
70981;SDS011;58640;51.320;9.456;2023-06-22T02:50:44;15.35;;;10.88;;
70981;SDS011;58640;51.320;9.456;2023-06-22T02:57:11;14.48;;;11.57;;
70981;SDS011;58640;51.320;9.456;2023-06-22T02:59:41;17.77;;;10.93;;
70981;SDS011;58640;51.320;9.456;2023-06-22T03:02:09;13.70;;;10.35;;
70981;SDS011;58640;51.320;9.456;2023-06-22T03:04:35;14.02;;;12.15;;
70981;SDS011;58640;51.320;9.456;2023-06-22T03:13:44;18.98;;;11.70;;
70981;SDS011;58640;51.320;9.456;2023-06-22T03:16:48;15.93;;;11.38;;
70981;SDS011;58640;51.320;9.456;2023-06-22T03:19:13;11.07;;;9.98;;
70981;SDS011;58640;51.320;9.456;2023-06-22T03:21:38;14.02;;;10.70;;
70981;SDS011;58640;51.320;9.456;2023-06-22T03:24:05;11.13;;;9.82;;
70981;SDS011;58640;51.320;9.456;2023-06-22T03:26:33;17.38;;;11.98;;
70981;SDS011;58640;51.320;9.456;2023-06-22T03:28:59;13.65;;;10.82;;
70981;SDS011;58640;51.320;9.456;2023-06-22T03:31:25;20.05;;;11.70;;
70981;SDS011;58640;51.320;9.456;2023-06-22T03:33:50;16.30;;;11.98;;
70981;SDS011;58640;51.320;9.456;2023-06-22T03:36:16;12.55;;;11.00;;
70981;SDS011;58640;51.320;9.456;2023-06-22T03:38:49;13.02;;;11.40;;
70981;SDS011;58640;51.320;9.456;2023-06-22T03:41:15;18.02;;;11.38;;
70981;SDS011;58640;51.320;9.456;2023-06-22T03:43:41;18.73;;;11.30;;
70981;SDS011;58640;51.320;9.456;2023-06-22T03:46:06;15.38;;;11.73;;
70981;SDS011;58640;51.320;9.456;2023-06-22T03:48:32;15.07;;;11.88;;
70981;SDS011;58640;51.320;9.456;2023-06-22T03:50:59;14.93;;;11.25;;
70981;SDS011;58640;51.320;9.456;2023-06-22T03:53:24;16.13;;;12.52;;
70981;SDS011;58640;51.320;9.456;2023-06-22T03:55:50;17.13;;;12.18;;
70981;SDS011;58640;51.320;9.456;2023-06-22T03:58:17;21.83;;;12.35;;
70981;SDS011;58640;51.320;9.456;2023-06-22T04:00:44;20.80;;;13.52;;
70981;SDS011;58640;51.320;9.456;2023-06-22T04:03:11;18.58;;;13.40;;
70981;SDS011;58640;51.320;9.456;2023-06-22T04:05:37;19.63;;;13.70;;
70981;SDS011;58640;51.320;9.456;2023-06-22T04:08:03;16.70;;;13.43;;
70981;SDS011;58640;51.320;9.456;2023-06-22T04:10:29;15.30;;;13.68;;
70981;SDS011;58640;51.320;9.456;2023-06-22T04:12:54;18.75;;;13.38;;
70981;SDS011;58640;51.320;9.456;2023-06-22T04:15:20;16.77;;;12.85;;
70981;SDS011;58640;51.320;9.456;2023-06-22T04:17:45;16.10;;;11.82;;
70981;SDS011;58640;51.320;9.456;2023-06-22T04:20:10;17.40;;;13.25;;
70981;SDS011;58640;51.320;9.456;2023-06-22T04:22:36;14.02;;;11.50;;
70981;SDS011;58640;51.320;9.456;2023-06-22T04:25:01;13.88;;;10.77;;
70981;SDS011;58640;51.320;9.456;2023-06-22T04:27:26;22.92;;;13.45;;
70981;SDS011;58640;51.320;9.456;2023-06-22T04:29:52;14.88;;;11.95;;
70981;SDS011;58640;51.320;9.456;2023-06-22T04:32:17;13.43;;;11.02;;
70981;SDS011;58640;51.320;9.456;2023-06-22T04:34:43;15.50;;;12.10;;
70981;SDS011;58640;51.320;9.456;2023-06-22T04:37:09;12.57;;;11.18;;
70981;SDS011;58640;51.320;9.456;2023-06-22T04:39:34;19.48;;;12.68;;
70981;SDS011;58640;51.320;9.456;2023-06-22T04:41:59;17.95;;;11.80;;
70981;SDS011;58640;51.320;9.456;2023-06-22T04:44:25;12.35;;;11.02;;
70981;SDS011;58640;51.320;9.456;2023-06-22T04:46:59;15.38;;;11.50;;
70981;SDS011;58640;51.320;9.456;2023-06-22T04:49:27;10.98;;;9.88;;
70981;SDS011;58640;51.320;9.456;2023-06-22T04:52:03;21.92;;;11.20;;
70981;SDS011;58640;51.320;9.456;2023-06-22T04:54:34;12.13;;;10.45;;
70981;SDS011;58640;51.320;9.456;2023-06-22T04:57:01;17.70;;;10.45;;
70981;SDS011;58640;51.320;9.456;2023-06-22T04:59:27;14.65;;;11.00;;
70981;SDS011;58640;51.320;9.456;2023-06-22T05:01:55;12.85;;;10.82;;
70981;SDS011;58640;51.320;9.456;2023-06-22T05:04:25;16.63;;;10.95;;
70981;SDS011;58640;51.320;9.456;2023-06-22T05:06:52;13.85;;;10.45;;
70981;SDS011;58640;51.320;9.456;2023-06-22T05:09:17;16.35;;;11.30;;
70981;SDS011;58640;51.320;9.456;2023-06-22T05:11:43;20.20;;;12.40;;
70981;SDS011;58640;51.320;9.456;2023-06-22T05:14:09;14.40;;;10.50;;
70981;SDS011;58640;51.320;9.456;2023-06-22T05:16:35;17.38;;;10.48;;
70981;SDS011;58640;51.320;9.456;2023-06-22T05:19:01;12.52;;;11.23;;
70981;SDS011;58640;51.320;9.456;2023-06-22T05:21:28;13.98;;;11.00;;
70981;SDS011;58640;51.320;9.456;2023-06-22T05:23:54;14.95;;;11.93;;
70981;SDS011;58640;51.320;9.456;2023-06-22T05:26:24;12.48;;;10.52;;
70981;SDS011;58640;51.320;9.456;2023-06-22T05:28:50;14.32;;;11.13;;
70981;SDS011;58640;51.320;9.456;2023-06-22T05:31:15;14.35;;;10.27;;
70981;SDS011;58640;51.320;9.456;2023-06-22T05:33:42;14.20;;;10.20;;
70981;SDS011;58640;51.320;9.456;2023-06-22T05:36:09;11.80;;;9.45;;
70981;SDS011;58640;51.320;9.456;2023-06-22T05:38:35;14.77;;;11.10;;
70981;SDS011;58640;51.320;9.456;2023-06-22T05:41:01;13.20;;;10.93;;
70981;SDS011;58640;51.320;9.456;2023-06-22T05:43:26;11.50;;;9.43;;
70981;SDS011;58640;51.320;9.456;2023-06-22T05:45:52;13.27;;;10.43;;
70981;SDS011;58640;51.320;9.456;2023-06-22T05:48:17;15.20;;;10.85;;
70981;SDS011;58640;51.320;9.456;2023-06-22T05:50:43;11.50;;;9.43;;
70981;SDS011;58640;51.320;9.456;2023-06-22T05:53:08;11.80;;;8.63;;
70981;SDS011;58640;51.320;9.456;2023-06-22T05:55:33;20.52;;;10.25;;
70981;SDS011;58640;51.320;9.456;2023-06-22T05:57:59;11.67;;;9.73;;
70981;SDS011;58640;51.320;9.456;2023-06-22T06:00:24;11.15;;;9.98;;
70981;SDS011;58640;51.320;9.456;2023-06-22T06:02:50;10.60;;;9.50;;
70981;SDS011;58640;51.320;9.456;2023-06-22T06:05:16;18.50;;;11.32;;
70981;SDS011;58640;51.320;9.456;2023-06-22T06:07:41;13.13;;;11.25;;
70981;SDS011;58640;51.320;9.456;2023-06-22T06:10:07;13.15;;;10.98;;
70981;SDS011;58640;51.320;9.456;2023-06-22T06:12:33;12.70;;;9.48;;
70981;SDS011;58640;51.320;9.456;2023-06-22T06:14:59;10.65;;;9.05;;
70981;SDS011;58640;51.320;9.456;2023-06-22T06:17:24;17.38;;;10.80;;
70981;SDS011;58640;51.320;9.456;2023-06-22T06:19:49;14.43;;;9.70;;
70981;SDS011;58640;51.320;9.456;2023-06-22T06:22:15;10.52;;;9.30;;
70981;SDS011;58640;51.320;9.456;2023-06-22T06:24:40;13.88;;;9.57;;
70981;SDS011;58640;51.320;9.456;2023-06-22T06:27:05;10.23;;;8.85;;
70981;SDS011;58640;51.320;9.456;2023-06-22T06:29:31;10.10;;;9.00;;
70981;SDS011;58640;51.320;9.456;2023-06-22T06:31:57;11.98;;;9.77;;
70981;SDS011;58640;51.320;9.456;2023-06-22T06:34:22;11.52;;;9.45;;
70981;SDS011;58640;51.320;9.456;2023-06-22T06:36:48;11.82;;;9.38;;
70981;SDS011;58640;51.320;9.456;2023-06-22T06:39:13;9.27;;;8.15;;
70981;SDS011;58640;51.320;9.456;2023-06-22T06:41:38;10.63;;;9.10;;
70981;SDS011;58640;51.320;9.456;2023-06-22T06:44:04;10.38;;;8.32;;
70981;SDS011;58640;51.320;9.456;2023-06-22T06:46:29;11.63;;;7.80;;
70981;SDS011;58640;51.320;9.456;2023-06-22T06:48:54;9.18;;;8.02;;
70981;SDS011;58640;51.320;9.456;2023-06-22T06:51:20;12.07;;;9.52;;
70981;SDS011;58640;51.320;9.456;2023-06-22T06:53:45;9.55;;;8.23;;
70981;SDS011;58640;51.320;9.456;2023-06-22T06:56:11;9.55;;;8.55;;
70981;SDS011;58640;51.320;9.456;2023-06-22T06:58:37;9.82;;;8.57;;
70981;SDS011;58640;51.320;9.456;2023-06-22T07:01:02;9.57;;;8.50;;
70981;SDS011;58640;51.320;9.456;2023-06-22T07:03:28;10.95;;;7.53;;
70981;SDS011;58640;51.320;9.456;2023-06-22T07:05:53;9.23;;;8.23;;
70981;SDS011;58640;51.320;9.456;2023-06-22T07:08:19;9.05;;;8.15;;
70981;SDS011;58640;51.320;9.456;2023-06-22T07:10:44;9.10;;;7.97;;
70981;SDS011;58640;51.320;9.456;2023-06-22T07:13:09;10.10;;;8.02;;
70981;SDS011;58640;51.320;9.456;2023-06-22T07:15:35;9.55;;;7.93;;
70981;SDS011;58640;51.320;9.456;2023-06-22T07:18:00;8.45;;;7.55;;
70981;SDS011;58640;51.320;9.456;2023-06-22T07:20:25;7.90;;;7.05;;
70981;SDS011;58640;51.320;9.456;2023-06-22T07:22:51;7.85;;;7.00;;
70981;SDS011;58640;51.320;9.456;2023-06-22T07:25:16;11.38;;;7.30;;
70981;SDS011;58640;51.320;9.456;2023-06-22T07:28:01;7.93;;;7.10;;
70981;SDS011;58640;51.320;9.456;2023-06-22T07:30:32;7.25;;;6.55;;
70981;SDS011;58640;51.320;9.456;2023-06-22T07:32:59;8.75;;;6.78;;
70981;SDS011;58640;51.320;9.456;2023-06-22T07:35:29;9.25;;;7.55;;
70981;SDS011;58640;51.320;9.456;2023-06-22T07:37:55;7.75;;;6.03;;
70981;SDS011;58640;51.320;9.456;2023-06-22T07:40:21;7.45;;;6.57;;
70981;SDS011;58640;51.320;9.456;2023-06-22T07:42:46;7.55;;;6.80;;
70981;SDS011;58640;51.320;9.456;2023-06-22T07:45:16;13.63;;;6.45;;
70981;SDS011;58640;51.320;9.456;2023-06-22T07:47:42;7.25;;;6.50;;
70981;SDS011;58640;51.320;9.456;2023-06-22T07:50:07;9.95;;;6.80;;
70981;SDS011;58640;51.320;9.456;2023-06-22T07:52:33;11.50;;;5.90;;
70981;SDS011;58640;51.320;9.456;2023-06-22T07:54:58;7.68;;;6.20;;
70981;SDS011;58640;51.320;9.456;2023-06-22T07:57:23;6.75;;;6.05;;
70981;SDS011;58640;51.320;9.456;2023-06-22T07:59:57;8.00;;;5.85;;
70981;SDS011;58640;51.320;9.456;2023-06-22T08:02:22;5.38;;;4.80;;
70981;SDS011;58640;51.320;9.456;2023-06-22T08:04:48;9.43;;;6.38;;
70981;SDS011;58640;51.320;9.456;2023-06-22T08:07:13;6.40;;;5.70;;
70981;SDS011;58640;51.320;9.456;2023-06-22T08:09:39;8.32;;;5.75;;
70981;SDS011;58640;51.320;9.456;2023-06-22T08:12:11;7.93;;;5.60;;
70981;SDS011;58640;51.320;9.456;2023-06-22T08:14:38;7.10;;;6.40;;
70981;SDS011;58640;51.320;9.456;2023-06-22T08:17:04;6.63;;;5.82;;
70981;SDS011;58640;51.320;9.456;2023-06-22T08:19:29;6.30;;;5.70;;
70981;SDS011;58640;51.320;9.456;2023-06-22T08:21:54;7.95;;;6.13;;
70981;SDS011;58640;51.320;9.456;2023-06-22T08:24:20;7.25;;;6.20;;
70981;SDS011;58640;51.320;9.456;2023-06-22T08:26:45;9.77;;;6.15;;
70981;SDS011;58640;51.320;9.456;2023-06-22T08:29:11;6.72;;;6.07;;
70981;SDS011;58640;51.320;9.456;2023-06-22T08:31:36;8.23;;;6.65;;
70981;SDS011;58640;51.320;9.456;2023-06-22T08:34:02;9.88;;;6.07;;
70981;SDS011;58640;51.320;9.456;2023-06-22T08:36:27;6.75;;;6.05;;
70981;SDS011;58640;51.320;9.456;2023-06-22T08:38:57;8.15;;;6.78;;
70981;SDS011;58640;51.320;9.456;2023-06-22T08:41:26;7.25;;;5.90;;
70981;SDS011;58640;51.320;9.456;2023-06-22T08:43:52;7.80;;;6.60;;
70981;SDS011;58640;51.320;9.456;2023-06-22T08:46:18;6.60;;;6.00;;
70981;SDS011;58640;51.320;9.456;2023-06-22T08:48:48;11.38;;;6.55;;
70981;SDS011;58640;51.320;9.456;2023-06-22T08:51:13;9.00;;;5.82;;
70981;SDS011;58640;51.320;9.456;2023-06-22T08:53:39;10.18;;;6.47;;
70981;SDS011;58640;51.320;9.456;2023-06-22T08:56:04;6.80;;;5.72;;
70981;SDS011;58640;51.320;9.456;2023-06-22T08:58:29;8.40;;;6.85;;
70981;SDS011;58640;51.320;9.456;2023-06-22T09:00:55;9.40;;;6.13;;
70981;SDS011;58640;51.320;9.456;2023-06-22T09:03:20;8.75;;;6.25;;
70981;SDS011;58640;51.320;9.456;2023-06-22T09:05:45;9.45;;;7.68;;
70981;SDS011;58640;51.320;9.456;2023-06-22T09:08:11;8.10;;;6.40;;
70981;SDS011;58640;51.320;9.456;2023-06-22T09:10:36;12.18;;;6.70;;
70981;SDS011;58640;51.320;9.456;2023-06-22T09:13:02;8.02;;;6.72;;
70981;SDS011;58640;51.320;9.456;2023-06-22T09:15:27;8.25;;;7.07;;
70981;SDS011;58640;51.320;9.456;2023-06-22T09:17:53;6.93;;;6.20;;
70981;SDS011;58640;51.320;9.456;2023-06-22T09:20:19;9.57;;;6.28;;
70981;SDS011;58640;51.320;9.456;2023-06-22T09:22:44;7.60;;;6.55;;
70981;SDS011;58640;51.320;9.456;2023-06-22T09:25:10;7.45;;;6.72;;
70981;SDS011;58640;51.320;9.456;2023-06-22T09:27:35;9.15;;;6.90;;
70981;SDS011;58640;51.320;9.456;2023-06-22T09:30:01;8.13;;;6.32;;
70981;SDS011;58640;51.320;9.456;2023-06-22T09:32:28;7.13;;;6.43;;
70981;SDS011;58640;51.320;9.456;2023-06-22T09:34:53;8.38;;;7.47;;
70981;SDS011;58640;51.320;9.456;2023-06-22T09:37:18;11.55;;;7.15;;
70981;SDS011;58640;51.320;9.456;2023-06-22T09:39:44;10.13;;;6.57;;
70981;SDS011;58640;51.320;9.456;2023-06-22T09:42:09;8.32;;;6.53;;
70981;SDS011;58640;51.320;9.456;2023-06-22T09:44:35;7.07;;;6.38;;
70981;SDS011;58640;51.320;9.456;2023-06-22T09:47:00;8.13;;;5.95;;
70981;SDS011;58640;51.320;9.456;2023-06-22T09:49:26;7.22;;;6.18;;
70981;SDS011;58640;51.320;9.456;2023-06-22T09:51:51;8.75;;;6.85;;
70981;SDS011;58640;51.320;9.456;2023-06-22T09:54:17;6.88;;;6.22;;
70981;SDS011;58640;51.320;9.456;2023-06-22T09:56:42;9.05;;;6.70;;
70981;SDS011;58640;51.320;9.456;2023-06-22T09:59:08;6.78;;;5.82;;
70981;SDS011;58640;51.320;9.456;2023-06-22T10:01:33;9.77;;;6.22;;
70981;SDS011;58640;51.320;9.456;2023-06-22T10:03:58;7.45;;;6.65;;
70981;SDS011;58640;51.320;9.456;2023-06-22T10:06:24;8.98;;;6.70;;
70981;SDS011;58640;51.320;9.456;2023-06-22T10:08:50;8.13;;;6.57;;
70981;SDS011;58640;51.320;9.456;2023-06-22T10:11:16;12.85;;;7.30;;
70981;SDS011;58640;51.320;9.456;2023-06-22T10:13:42;7.50;;;6.80;;
70981;SDS011;58640;51.320;9.456;2023-06-22T10:16:07;9.68;;;7.22;;
70981;SDS011;58640;51.320;9.456;2023-06-22T10:18:33;12.20;;;7.78;;
70981;SDS011;58640;51.320;9.456;2023-06-22T10:20:58;8.77;;;7.18;;
70981;SDS011;58640;51.320;9.456;2023-06-22T10:23:23;7.80;;;6.68;;
70981;SDS011;58640;51.320;9.456;2023-06-22T10:25:49;7.20;;;6.60;;
70981;SDS011;58640;51.320;9.456;2023-06-22T10:28:14;10.35;;;7.28;;
70981;SDS011;58640;51.320;9.456;2023-06-22T10:30:40;7.03;;;6.30;;
70981;SDS011;58640;51.320;9.456;2023-06-22T10:33:06;8.13;;;6.72;;
70981;SDS011;58640;51.320;9.456;2023-06-22T10:35:35;7.90;;;6.50;;
70981;SDS011;58640;51.320;9.456;2023-06-22T10:38:02;8.02;;;5.97;;
70981;SDS011;58640;51.320;9.456;2023-06-22T10:40:28;7.40;;;6.70;;
70981;SDS011;58640;51.320;9.456;2023-06-22T10:42:54;7.22;;;6.53;;
70981;SDS011;58640;51.320;9.456;2023-06-22T10:45:20;6.93;;;6.22;;
70981;SDS011;58640;51.320;9.456;2023-06-22T10:47:45;7.20;;;5.82;;
70981;SDS011;58640;51.320;9.456;2023-06-22T10:50:10;8.65;;;6.13;;
70981;SDS011;58640;51.320;9.456;2023-06-22T10:52:36;7.03;;;5.97;;
70981;SDS011;58640;51.320;9.456;2023-06-22T10:55:02;7.75;;;6.18;;
70981;SDS011;58640;51.320;9.456;2023-06-22T10:57:27;7.32;;;5.82;;
70981;SDS011;58640;51.320;9.456;2023-06-22T10:59:53;6.60;;;4.70;;
70981;SDS011;58640;51.320;9.456;2023-06-22T11:02:18;5.88;;;5.18;;
70981;SDS011;58640;51.320;9.456;2023-06-22T11:04:43;6.88;;;5.57;;
70981;SDS011;58640;51.320;9.456;2023-06-22T11:07:09;8.55;;;6.40;;
70981;SDS011;58640;51.320;9.456;2023-06-22T11:09:34;8.55;;;6.03;;
70981;SDS011;58640;51.320;9.456;2023-06-22T11:12:00;9.27;;;5.75;;
70981;SDS011;58640;51.320;9.456;2023-06-22T11:14:25;7.40;;;6.07;;
70981;SDS011;58640;51.320;9.456;2023-06-22T11:16:51;9.45;;;6.28;;
70981;SDS011;58640;51.320;9.456;2023-06-22T11:19:16;6.40;;;5.30;;
70981;SDS011;58640;51.320;9.456;2023-06-22T11:21:42;7.97;;;5.75;;
70981;SDS011;58640;51.320;9.456;2023-06-22T11:24:07;7.35;;;5.50;;
70981;SDS011;58640;51.320;9.456;2023-06-22T11:26:33;9.27;;;7.22;;
70981;SDS011;58640;51.320;9.456;2023-06-22T11:28:58;7.75;;;5.75;;
70981;SDS011;58640;51.320;9.456;2023-06-22T11:31:24;6.75;;;5.93;;
70981;SDS011;58640;51.320;9.456;2023-06-22T11:33:49;6.25;;;5.65;;
70981;SDS011;58640;51.320;9.456;2023-06-22T11:36:15;9.02;;;6.70;;
70981;SDS011;58640;51.320;9.456;2023-06-22T11:38:41;7.03;;;5.97;;
70981;SDS011;58640;51.320;9.456;2023-06-22T11:41:09;7.45;;;6.03;;
70981;SDS011;58640;51.320;9.456;2023-06-22T11:43:35;6.82;;;6.00;;
70981;SDS011;58640;51.320;9.456;2023-06-22T11:46:02;6.22;;;5.65;;
70981;SDS011;58640;51.320;9.456;2023-06-22T11:48:28;6.72;;;6.05;;
70981;SDS011;58640;51.320;9.456;2023-06-22T11:50:54;9.13;;;5.55;;
70981;SDS011;58640;51.320;9.456;2023-06-22T11:53:20;7.10;;;6.05;;
70981;SDS011;58640;51.320;9.456;2023-06-22T11:55:46;6.47;;;5.88;;
70981;SDS011;58640;51.320;9.456;2023-06-22T11:58:12;6.38;;;5.53;;
70981;SDS011;58640;51.320;9.456;2023-06-22T12:00:37;7.75;;;5.78;;
70981;SDS011;58640;51.320;9.456;2023-06-22T12:03:03;7.70;;;5.85;;
70981;SDS011;58640;51.320;9.456;2023-06-22T12:05:28;6.75;;;5.80;;
70981;SDS011;58640;51.320;9.456;2023-06-22T12:07:54;6.60;;;6.00;;
70981;SDS011;58640;51.320;9.456;2023-06-22T12:10:20;6.90;;;6.18;;
70981;SDS011;58640;51.320;9.456;2023-06-22T12:12:46;7.68;;;5.15;;
70981;SDS011;58640;51.320;9.456;2023-06-22T12:15:11;10.57;;;5.70;;
70981;SDS011;58640;51.320;9.456;2023-06-22T12:17:37;6.20;;;5.60;;
70981;SDS011;58640;51.320;9.456;2023-06-22T12:20:02;9.90;;;4.93;;
70981;SDS011;58640;51.320;9.456;2023-06-22T12:22:34;6.75;;;5.22;;
70981;SDS011;58640;51.320;9.456;2023-06-22T12:25:00;7.47;;;6.25;;
70981;SDS011;58640;51.320;9.456;2023-06-22T12:27:26;6.55;;;5.95;;
70981;SDS011;58640;51.320;9.456;2023-06-22T12:29:51;8.07;;;5.43;;
70981;SDS011;58640;51.320;9.456;2023-06-22T12:32:17;8.48;;;5.80;;
70981;SDS011;58640;51.320;9.456;2023-06-22T12:34:42;9.05;;;5.85;;
70981;SDS011;58640;51.320;9.456;2023-06-22T12:37:08;6.53;;;5.82;;
70981;SDS011;58640;51.320;9.456;2023-06-22T12:39:34;6.50;;;5.07;;
70981;SDS011;58640;51.320;9.456;2023-06-22T12:41:59;9.75;;;5.35;;
70981;SDS011;58640;51.320;9.456;2023-06-22T12:44:24;6.57;;;4.97;;
70981;SDS011;58640;51.320;9.456;2023-06-22T12:46:50;8.10;;;4.95;;
70981;SDS011;58640;51.320;9.456;2023-06-22T12:49:15;5.72;;;4.90;;
70981;SDS011;58640;51.320;9.456;2023-06-22T12:51:41;6.72;;;5.18;;
70981;SDS011;58640;51.320;9.456;2023-06-22T12:54:07;5.43;;;4.93;;
70981;SDS011;58640;51.320;9.456;2023-06-22T12:56:33;6.13;;;4.80;;
70981;SDS011;58640;51.320;9.456;2023-06-22T12:58:58;10.40;;;8.43;;
70981;SDS011;58640;51.320;9.456;2023-06-22T13:01:26;9.98;;;6.35;;
70981;SDS011;58640;51.320;9.456;2023-06-22T13:03:55;10.68;;;5.82;;
70981;SDS011;58640;51.320;9.456;2023-06-22T13:06:20;10.02;;;5.57;;
70981;SDS011;58640;51.320;9.456;2023-06-22T13:08:46;7.22;;;5.60;;
70981;SDS011;58640;51.320;9.456;2023-06-22T13:11:11;8.95;;;5.78;;
70981;SDS011;58640;51.320;9.456;2023-06-22T13:13:37;6.38;;;5.78;;
70981;SDS011;58640;51.320;9.456;2023-06-22T13:16:03;9.13;;;6.50;;
70981;SDS011;58640;51.320;9.456;2023-06-22T13:18:28;6.78;;;5.70;;
70981;SDS011;58640;51.320;9.456;2023-06-22T13:20:54;9.35;;;5.93;;
70981;SDS011;58640;51.320;9.456;2023-06-22T13:23:20;7.57;;;6.05;;
70981;SDS011;58640;51.320;9.456;2023-06-22T13:25:46;7.32;;;5.97;;
70981;SDS011;58640;51.320;9.456;2023-06-22T13:28:11;11.45;;;6.72;;
70981;SDS011;58640;51.320;9.456;2023-06-22T13:30:40;7.10;;;6.10;;
70981;SDS011;58640;51.320;9.456;2023-06-22T13:33:05;8.40;;;7.30;;
70981;SDS011;58640;51.320;9.456;2023-06-22T13:35:31;7.72;;;5.32;;
70981;SDS011;58640;51.320;9.456;2023-06-22T13:37:56;9.40;;;6.40;;
70981;SDS011;58640;51.320;9.456;2023-06-22T13:40:21;8.93;;;6.15;;
70981;SDS011;58640;51.320;9.456;2023-06-22T13:42:47;8.50;;;6.18;;
70981;SDS011;58640;51.320;9.456;2023-06-22T13:45:12;7.30;;;6.35;;
70981;SDS011;58640;51.320;9.456;2023-06-22T13:47:38;9.57;;;6.97;;
70981;SDS011;58640;51.320;9.456;2023-06-22T13:50:03;11.45;;;6.78;;
70981;SDS011;58640;51.320;9.456;2023-06-22T13:52:29;8.80;;;6.50;;
70981;SDS011;58640;51.320;9.456;2023-06-22T13:54:54;7.90;;;7.07;;
70981;SDS011;58640;51.320;9.456;2023-06-22T13:57:19;7.10;;;6.35;;
70981;SDS011;58640;51.320;9.456;2023-06-22T13:59:45;8.93;;;6.60;;
70981;SDS011;58640;51.320;9.456;2023-06-22T14:02:10;8.43;;;7.30;;
70981;SDS011;58640;51.320;9.456;2023-06-22T14:04:35;10.02;;;6.65;;
70981;SDS011;58640;51.320;9.456;2023-06-22T14:07:01;9.05;;;7.30;;
70981;SDS011;58640;51.320;9.456;2023-06-22T14:09:26;9.60;;;7.13;;
70981;SDS011;58640;51.320;9.456;2023-06-22T14:11:53;12.05;;;7.75;;
70981;SDS011;58640;51.320;9.456;2023-06-22T14:14:19;12.00;;;7.38;;
70981;SDS011;58640;51.320;9.456;2023-06-22T14:16:45;8.50;;;7.22;;
70981;SDS011;58640;51.320;9.456;2023-06-22T14:19:10;7.60;;;6.90;;
70981;SDS011;58640;51.320;9.456;2023-06-22T14:21:36;10.75;;;6.80;;
70981;SDS011;58640;51.320;9.456;2023-06-22T14:24:01;7.97;;;6.90;;
70981;SDS011;58640;51.320;9.456;2023-06-22T14:26:27;7.88;;;7.18;;
70981;SDS011;58640;51.320;9.456;2023-06-22T14:28:52;8.25;;;6.72;;
70981;SDS011;58640;51.320;9.456;2023-06-22T14:31:18;9.93;;;8.30;;
70981;SDS011;58640;51.320;9.456;2023-06-22T14:33:45;17.48;;;3.53;;
70981;SDS011;58640;51.320;9.456;2023-06-22T14:36:13;11.82;;;3.22;;
70981;SDS011;58640;51.320;9.456;2023-06-22T14:38:38;11.65;;;3.25;;
70981;SDS011;58640;51.320;9.456;2023-06-22T14:41:04;10.38;;;4.28;;
70981;SDS011;58640;51.320;9.456;2023-06-22T14:43:30;9.57;;;3.67;;
70981;SDS011;58640;51.320;9.456;2023-06-22T14:45:55;14.25;;;4.63;;
70981;SDS011;58640;51.320;9.456;2023-06-22T14:48:20;12.48;;;5.22;;
70981;SDS011;58640;51.320;9.456;2023-06-22T14:50:46;28.60;;;7.32;;
70981;SDS011;58640;51.320;9.456;2023-06-22T14:53:11;37.22;;;7.38;;